Yellowstone Airport
KWYS : now visible

Airfield :











YOU CAN JOIN US ON...

 
LOGIN :

Register | Disclaimer

   EN    FR    IT 

 









Legend :    VFR   Marginal VFR   IFR   Intensive IFR   Very Intensive IFR
Visi :
Ceiling :
>= 8 km
>= 3000ft
5 to 8 km
1000 to 3000 ft
1500m to 5 km
500 to 1000 ft
800 to 1500m
200 to 500 ft
< 800m
< 200 ft
Symbols :   Thunderstorms  Fog  Heavy snow  Heavy precipitations  Wind > 20 kt






- Airport Elevation : 6649 ft


KWYS - Yellowstone

CURRENT METAR :
  • 260535Z AUTO 19005KT 10SM FEW031 BKN044 OVC055 04/04 A2987 RMK AO2

EXPIRED METARs :
  • 260515Z AUTO VRB05KT 10SM FEW046 BKN055 OVC065 05/04 A2986 RMK AO2
  • 260455Z AUTO 22005G12KT 10SM FEW015 OVC060 04/04 A2986 RMK AO2
  • 260435Z AUTO 20007G12KT 170V250 10SM SCT016 BKN022 OVC095 05/05 A2985 RMK AO2
  • 260415Z AUTO 00000KT 10SM FEW024 SCT050 OVC090 04/04 A2986 RMK AO2
  • 260355Z AUTO VRB03KT 10SM BKN046 OVC055 05/05 A2986 RMK AO2
  • 260335Z AUTO 22007KT 10SM SCT047 OVC055 04/04 A2984 RMK AO2
  • 260315Z AUTO 20007KT 10SM FEW035 BKN055 OVC065 04/04 A2984 RMK AO2
  • 260255Z AUTO 20005KT 10SM SCT033 BKN060 OVC090 05/05 A2984 RMK AO2
  • 260235Z AUTO VRB05KT 10SM FEW016 SCT026 OVC055 05/05 A2983 RMK AO2
  • 260155Z AUTO 36004G10KT 10SM SCT018 BKN033 OVC065 06/06 A2983 RMK AO2
  • 260135Z AUTO 25007KT 10SM FEW055 BKN065 BKN095 07/07 A2982 RMK AO2
  • 260115Z AUTO 23007G12KT 10SM FEW055 SCT065 SCT095 07/07 A2981 RMK AO2
  • 260055Z AUTO VRB05KT 10SM SCT050 BKN060 BKN085 07/07 A2980 RMK AO2 P0001
  • 260035Z AUTO 21012KT 10SM FEW043 SCT049 BKN055 07/07 A2980 RMK AO2

TAF KWYS
Valid from the 26 at 04:00 until the 27 at 00:00 UTC


260426Z 2604/2624 VRB06KT P6SM VCSH SCT035 BKN060
TEMPO 2604/2606 6SM -SHRA BKN035
FM260600 VRB06KT P6SM SCT015 BKN035
FM261200 VRB06KT 6SM BR FEW010 SCT035
FM261600 24011G18KT P6SM FEW050 BKN090
KZLC FIR / North America



MET'MAP, your aeronautical weather chart ! - Copyright ORBIFLY December 2007 - Disclaimer

ORBIFLY MET'MAP TEAM :

Programming & Development : Alexandra Zaïnal
Original concept : Baudouin d'Aumeries
Technical & hardware support : Manuel Goepfert
Assistance : Marc-Olivier Méhu




SOURCES & CREDITS :

   NOAA       Earth
Advisory